AirNav   Pilot Hours Calculator
 
 1283 users online  

NH81 Franklin Regional Hospital Heliport
Franklin, New Hampshire, USA

GOING TO FRANKLIN?


FAA INFORMATION EFFECTIVE 30 JANUARY 2020

Location

FAA Identifier: NH81
Lat/Long: 43-26-54.0300N 071-38-43.5500W
43-26.900500N 071-38.725833W
43.4483417,-71.6454306
(estimated)
Elevation: 480 ft. / 146 m (estimated)
Variation: 16W (1995)
Time zone: UTC -5 (UTC -4 during Daylight Saving Time)
Zip code: 03235

Heliport Operations

Heliport use: Private use, MEDICAL USE.
Activation date: 08/1998
Control tower: no
ARTCC: BOSTON CENTER
FSS: BANGOR FLIGHT SERVICE STATION
Attendance: UNATNDD
Segmented circle: no

Heliport Communications

WX AWOS-3PT at LCI (12 nm NE): 133.525 (603-524-5134)
WX ASOS at CON (16 nm SE): 132.325 (603-224-6558)

Nearby radio navigation aids

VOR radial/distance  VOR name  Freq  Var
CONr002/14.0CONCORD VOR/DME112.9015W
LEBr134/28.4LEBANON VOR/DME113.7015W
MHTr356/36.8MANCHESTER VOR/DME114.4015W

 
NDB name  Hdg/Dist  Freq  Var  ID
BLNAP238/7.132816WLC .-.. -.-.
HANOVER138/27.727615WLAH .-.. .- ....
CLAREMONT097/32.023316WCNH -.-. -. ....
ROLLINS307/38.226016WESG . ... --.

Heliport Services

Runway Information

Helipad H1

Dimensions: 40 x 40 ft. / 12 x 12 m
Surface: asphalt
Latitude: 43-26.900500N
Longitude: 071-38.725833W
Elevation: 480.0 ft.
Traffic pattern: leftleft

Heliport Ownership and Management from official FAA records

Ownership: Privately-owned
Owner: FRANKLIN REGIONAL HOSPITAL
15 AIKEN AVENUE
FRANKLIN, NH 03235
Phone 603-934-2060
Manager: JOHN D. PRICKETT
80 HIGHLAND STREET
LACONIA, NH 03246
Phone 603-524-3211

Additional Remarks

FOR CD CTC BOSTON APCH AT 603-594-5551.

Instrument Procedures

There are no published instrument procedures at NH81.

Some nearby airports with instrument procedures:

KLCI - Laconia Municipal Airport (12 nm NE)
KCON - Concord Municipal Airport (16 nm SE)
2B3 - Parlin Field Airport (24 nm W)
KLEB - Lebanon Municipal Airport (31 nm W)
KCNH - Claremont Municipal Airport (32 nm W)
 
Loc | Ops | Rwys | IFR | FBO | Links
Com | Nav | Svcs | Stats | Notes
Area around NH81 (Franklin Regional Hospital Heliport)
 
Road maps at: MapQuest Bing Google
 
Aerial photo
No photo
 
Sectional chart

 
Airport distance calculator
Flying to Franklin Regional Hospital Heliport? Find the distance to fly.

From to NH81

Sunrise and sunset
Times for 17-Feb-2020
 Local
(UTC-5)
 Zulu
(UTC)
Morning civil twilight06:1411:14
Sunrise06:4311:43
Sunset17:1822:18
Evening civil twilight17:4822:48

Current date and time
Zulu (UTC)  17-Feb-2020 15:34:18
Local (UTC-5)  17-Feb-2020 10:34:18
 
METAR
KLCI 
12nm NE 
171456Z AUTO 31009KT 10SM FEW042 01/M11 A3017 RMK AO2 SLP225 60000 T00061106 51021 FZRANO
KCON 
16nm SE 
171451Z AUTO 30009KT 10SM CLR 02/M09 A3018 RMK AO2 SLP224 T00171089 51020
K1P1 
20nm N 
171515Z AUTO 28011G20KT 10SM CLR 00/M10 A3018 RMK AO2 T10021104
TAF
KCON 
16nm SE 
171132Z 1712/1812 VRB03KT P6SM SCT150 FM171400 30005KT P6SM SKC FM171800 31008G15KT P6SM FEW040 FM172300 VRB04KT P6SM SKC
NOTAMs
Click for the latest NOTAMs
NOTAMs are issued by the DoD/FAA and will open in a separate window not controlled by AirNav.

 

 
 

Would you like to see your business listed on this page?

 If your business provides an interesting product or service to pilots, flight crews, aircraft, or users of the Franklin Regional Hospital Heliport, you should consider listing it here.  To start the listing process, click on the button below
 
Add a business
 

Other Pages about Franklin Regional Hospital Heliport

Update a link
 
Copyright © AirNav, LLC. All rights reserved. Privacy Policy  Contact